Time;durP1;ratioP1;P1;durP2;ratioP2;P2;SDS_P1;SDS_P2;PMS_P1;PMS_P2;Temp;Humidity;BMP_temperature;BMP_pressure;BME280_temperature;BME280_humidity;BME280_pressure;Samples;Min_cycle;Max_cycle;Signal;HPM_P1;HPM_P2
2022/11/03 00:02:09;;;;;;;10.43;2.75;;;;;;;11.42;79.51;101383.66;5025934;28;20490;-63
2022/11/03 00:04:34;;;;;;;12.60;3.05;;;;;;;11.46;79.09;101382.16;5027943;28;20384;-63
2022/11/03 00:07:00;;;;;;;14.32;3.15;;;;;;;11.41;79.20;101377.31;5028537;28;20090;-63
2022/11/03 00:09:26;;;;;;;11.10;2.95;;;;;;;11.41;79.55;101379.22;5028902;28;20033;-64
2022/11/03 00:11:51;;;;;;;14.90;3.38;;;;;;;11.41;79.30;101355.31;5027845;28;20037;-63
2022/11/03 00:14:17;;;;;;;11.60;2.97;;;;;;;11.40;79.49;101364.63;5029874;28;20578;-63
2022/11/03 00:16:43;;;;;;;16.20;2.95;;;;;;;11.41;79.16;101366.31;5028938;28;20086;-63
2022/11/03 00:19:09;;;;;;;12.68;2.78;;;;;;;11.43;79.34;101353.16;5027533;28;20140;-63
2022/11/03 00:21:36;;;;;;;11.75;2.90;;;;;;;11.44;78.97;101357.59;5029016;28;20037;-62
2022/11/03 00:24:02;;;;;;;10.45;2.45;;;;;;;11.44;79.45;101359.50;5027286;28;20026;-62
2022/11/03 00:26:30;;;;;;;11.48;2.75;;;;;;;11.48;78.49;101355.25;5027909;28;20371;-63
2022/11/03 00:29:00;;;;;;;14.57;3.05;;;;;;;11.49;78.99;101350.59;5027217;28;20021;-63
2022/11/03 00:31:28;;;;;;;15.82;3.47;;;;;;;11.48;78.66;101348.91;5027894;28;20025;-63
2022/11/03 00:33:54;;;;;;;11.88;2.70;;;;;;;11.53;78.43;101343.56;5028258;28;20029;-63
2022/11/03 00:36:22;;;;;;;14.13;3.20;;;;;;;11.49;78.88;101345.94;5027625;28;20037;-63
2022/11/03 00:38:48;;;;;;;12.90;2.58;;;;;;;11.53;78.81;101346.31;5028332;28;20475;-64
2022/11/03 00:41:14;;;;;;;13.13;2.80;;;;;;;11.51;78.74;101331.97;5028514;28;20084;-63
2022/11/03 00:43:40;;;;;;;11.43;2.72;;;;;;;11.49;78.85;101328.59;5028094;28;20446;-64
2022/11/03 00:46:07;;;;;;;11.40;3.20;;;;;;;11.47;78.98;101330.72;5028045;28;20120;-63
2022/11/03 00:48:34;;;;;;;13.68;2.72;;;;;;;11.47;78.84;101314.22;5028089;28;20014;-63
2022/11/03 00:51:05;;;;;;;10.07;2.70;;;;;;;11.47;79.10;101308.72;5027131;28;20029;-64
2022/11/03 00:53:32;;;;;;;11.40;2.75;;;;;;;11.48;78.70;101311.25;5022442;28;20053;-63
2022/11/03 00:55:58;;;;;;;11.63;2.75;;;;;;;11.52;78.58;101306.97;5028994;28;20018;-64
2022/11/03 00:58:23;;;;;;;11.57;2.63;;;;;;;11.54;78.62;101304.00;5028882;28;20479;-63
2022/11/03 01:00:48;;;;;;;14.02;2.95;;;;;;;11.53;78.77;101303.16;5028583;28;20128;-64
2022/11/03 01:03:14;;;;;;;10.18;2.50;;;;;;;11.55;78.50;101294.66;5027351;28;20041;-63
2022/11/03 01:08:24;;;;;;;11.68;2.90;;;;;;;11.56;78.87;101280.72;5015976;28;20554;-63
2022/11/03 01:13:33;;;;;;;9.55;2.75;;;;;;;11.63;78.19;101280.63;5027886;28;20606;-63
2022/11/03 01:15:59;;;;;;;11.18;2.88;;;;;;;11.64;78.30;101283.16;5026058;28;20132;-63
2022/11/03 01:18:24;;;;;;;13.90;3.10;;;;;;;11.65;78.29;101275.72;5026710;28;20448;-63
2022/11/03 01:20:56;;;;;;;13.25;2.90;;;;;;;11.66;78.18;101274.69;5026964;28;20533;-63
2022/11/03 01:23:23;;;;;;;11.73;3.20;;;;;;;11.64;78.57;101271.31;5028021;28;20037;-63
2022/11/03 01:25:49;;;;;;;9.93;2.53;;;;;;;11.72;78.07;101273.78;5028421;28;20433;-65
2022/11/03 01:28:14;;;;;;;10.65;2.42;;;;;;;11.70;78.26;101265.72;5028787;28;20471;-63
2022/11/03 01:30:39;;;;;;;11.90;2.90;;;;;;;11.73;78.38;101266.34;5027785;28;20087;-63
2022/11/03 01:33:04;;;;;;;15.07;3.58;;;;;;;11.69;78.45;101260.44;5027242;28;20057;-63
2022/11/03 01:35:30;;;;;;;9.43;2.55;;;;;;;11.73;78.32;101267.19;5027155;28;20033;-63
2022/11/03 01:37:58;;;;;;;10.60;2.70;;;;;;;11.72;78.62;101251.75;5027055;28;20031;-63
2022/11/03 01:40:23;;;;;;;13.00;3.05;;;;;;;11.76;78.38;101257.63;5026914;28;20472;-63
2022/11/03 01:42:48;;;;;;;10.77;2.75;;;;;;;11.80;78.34;101248.69;5040803;28;20095;-64
2022/11/03 01:45:14;;;;;;;9.32;2.55;;;;;;;11.81;78.05;101244.88;5027919;28;20122;-62
2022/11/03 01:47:41;;;;;;;10.50;2.70;;;;;;;11.84;78.32;101247.19;5027220;28;20034;-62
2022/11/03 01:50:17;;;;;;;12.77;3.22;;;;;;;11.93;77.85;101242.22;5024137;28;20474;-63
2022/11/03 01:53:00;;;;;;;8.52;2.25;;;;;;;11.85;78.43;101229.59;5011270;28;20032;-63
2022/11/03 01:55:31;;;;;;;7.82;2.17;;;;;;;11.87;78.10;101232.16;5028383;28;20068;-63
2022/11/03 01:58:02;;;;;;;12.65;3.33;;;;;;;11.83;78.35;101226.25;5027768;28;20446;-63
2022/11/03 02:00:28;;;;;;;10.23;2.78;;;;;;;11.87;78.12;101227.47;5026581;28;20057;-64
2022/11/03 02:02:54;;;;;;;13.25;2.90;;;;;;;11.89;78.58;101218.97;5025515;28;20083;-62
2022/11/03 02:05:22;;;;;;;10.18;2.53;;;;;;;11.86;79.12;101223.06;5026879;28;20042;-63
2022/11/03 02:07:52;;;;;;;10.25;2.67;;;;;;;11.92;78.41;101226.78;5026665;28;20040;-64
2022/11/03 02:10:18;;;;;;;12.93;2.80;;;;;;;11.93;78.70;101215.53;5026452;28;20038;-63
2022/11/03 02:12:43;;;;;;;11.93;2.70;;;;;;;11.89;78.89;101214.31;5022732;28;20033;-63
2022/11/03 02:15:12;;;;;;;8.88;2.40;;;;;;;11.93;79.08;101211.94;5026791;28;20033;-63
2022/11/03 02:17:39;;;;;;;12.60;3.05;;;;;;;11.94;79.41;101217.22;5027398;28;20041;-63
2022/11/03 02:20:07;;;;;;;9.32;2.67;;;;;;;11.94;79.03;101197.09;5024604;28;20033;-63
2022/11/03 02:23:05;;;;;;;11.65;3.03;;;;;;;11.95;79.01;101196.88;5023521;28;20076;-63
2022/11/03 02:25:44;;;;;;;9.13;2.25;;;;;;;11.90;79.16;101196.72;5027326;28;20030;-63
2022/11/03 02:28:10;;;;;;;;;;;;;;;12.06;77.98;101187.00;5026295;28;20049;-63
2022/11/03 02:30:56;;;;;;;13.10;2.70;;;;;;;12.02;78.82;101187.72;5026681;28;20260;-63
2022/11/03 02:33:36;;;;;;;11.63;2.90;;;;;;;12.03;78.97;101181.13;5025764;28;20124;-63
2022/11/03 02:36:13;;;;;;;11.40;2.70;;;;;;;11.99;79.06;101174.41;5025863;28;20061;-62
2022/11/03 02:38:46;;;;;;;10.07;2.77;;;;;;;11.96;79.43;101178.44;5024856;28;20039;-63
2022/11/03 02:41:13;;;;;;;11.55;2.70;;;;;;;11.98;79.18;101165.31;5007512;28;20030;-63
2022/11/03 02:43:40;;;;;;;10.65;2.78;;;;;;;11.93;79.36;101165.16;5025329;28;20512;-63
2022/11/03 02:46:06;;;;;;;9.98;2.22;;;;;;;11.97;79.19;101166.38;5025687;28;20033;-63
2022/11/03 02:48:32;;;;;;;12.55;2.83;;;;;;;11.98;79.01;101167.22;5024354;28;20030;-63
2022/11/03 02:50:57;;;;;;;9.65;3.00;;;;;;;11.97;79.59;101152.63;5022253;28;20080;-62
2022/11/03 02:53:23;;;;;;;10.07;2.88;;;;;;;11.97;79.52;101149.03;5021402;28;20041;-63
2022/11/03 02:56:00;;;;;;;11.18;2.55;;;;;;;12.07;79.44;101155.66;5027485;28;20030;-64
2022/11/03 02:58:51;;;;;;;11.32;2.75;;;;;;;11.94;79.40;101144.81;5027033;28;20021;-63
2022/11/03 03:01:33;;;;;;;10.35;2.63;;;;;;;11.93;80.05;101143.97;5026098;28;20064;-63
2022/11/03 03:04:02;;;;;;;11.15;2.85;;;;;;;11.93;79.97;101126.63;5026326;28;20038;-62
2022/11/03 03:06:30;;;;;;;10.60;2.33;;;;;;;11.89;80.39;101126.25;5022431;28;20061;-62
2022/11/03 03:09:02;;;;;;;9.10;2.60;;;;;;;11.91;80.24;101140.63;5025462;28;20044;-62
2022/11/03 03:11:37;;;;;;;10.63;2.60;;;;;;;11.88;80.66;101115.47;5025665;28;20090;-63
2022/11/03 03:14:32;;;;;;;11.40;2.50;;;;;;;11.99;79.91;101122.09;5025078;28;20038;-63
2022/11/03 03:17:03;;;;;;;12.88;2.90;;;;;;;11.88;80.28;101113.56;5027872;28;20038;-63
2022/11/03 03:19:42;;;;;;;10.85;2.78;;;;;;;11.87;80.99;101106.38;5026320;28;20030;-63
2022/11/03 03:22:34;;;;;;;11.88;2.80;;;;;;;11.90;80.47;101105.06;5027152;28;20103;-62
2022/11/03 03:25:20;;;;;;;10.23;2.60;;;;;;;11.87;81.01;101113.81;5012719;28;20038;-62
2022/11/03 03:27:49;;;;;;;10.95;2.90;;;;;;;11.88;80.98;101102.53;5030760;28;20475;-63
2022/11/03 03:30:15;;;;;;;11.35;2.85;;;;;;;11.83;81.25;101101.56;5030731;28;20025;-62
2022/11/03 03:32:45;;;;;;;12.13;3.10;;;;;;;11.85;81.14;101097.50;5029175;28;20033;-63
2022/11/03 03:35:16;;;;;;;12.93;2.75;;;;;;;11.83;81.34;101101.56;5028435;28;20608;-63
2022/11/03 03:37:45;;;;;;;11.90;2.90;;;;;;;11.87;81.36;101095.38;5029590;28;20041;-63
2022/11/03 03:40:17;;;;;;;10.15;2.70;;;;;;;11.93;80.88;101097.19;5029875;28;20453;-63
2022/11/03 03:42:46;;;;;;;11.10;3.28;;;;;;;11.89;81.12;101082.19;5030638;28;20026;-63
2022/11/03 03:45:12;;;;;;;12.55;3.05;;;;;;;11.90;81.54;101092.13;5030363;28;20087;-62
2022/11/03 03:47:38;;;;;;;12.32;2.78;;;;;;;11.87;81.84;101078.03;5029468;28;20076;-63
2022/11/03 03:50:04;;;;;;;8.38;2.40;;;;;;;11.87;81.68;101084.38;5028156;28;20033;-63
2022/11/03 03:52:32;;;;;;;8.95;2.30;;;;;;;11.88;81.60;101077.78;5027733;28;20034;-63
2022/11/03 03:54:57;;;;;;;10.27;2.40;;;;;;;11.91;81.59;101074.56;5029581;28;20399;-63
2022/11/03 03:57:24;;;;;;;11.20;2.90;;;;;;;11.87;82.12;101073.34;5030120;28;20030;-63
2022/11/03 03:59:50;;;;;;;11.57;2.60;;;;;;;11.89;82.06;101062.94;5028509;28;20034;-64
2022/11/03 04:02:15;;;;;;;12.55;2.70;;;;;;;11.97;81.26;101049.94;5029062;28;20611;-63
2022/11/03 04:04:40;;;;;;;10.13;2.47;;;;;;;11.94;81.64;101062.25;5029069;28;20392;-63
2022/11/03 04:09:50;;;;;;;11.75;2.75;;;;;;;11.92;82.34;101051.47;5029166;28;20576;-64
2022/11/03 04:23:14;;;;;;;10.02;2.25;;;;;;;11.86;82.82;101038.66;5027459;28;20091;-63
2022/11/03 04:25:41;;;;;;;8.85;2.30;;;;;;;11.88;83.25;101041.16;5029905;28;20476;-64
2022/11/03 04:28:12;;;;;;;10.43;2.83;;;;;;;11.86;83.08;101038.66;5025964;28;20472;-64
2022/11/03 04:30:38;;;;;;;9.93;2.80;;;;;;;11.90;83.14;101034.34;5029828;28;20044;-63
2022/11/03 04:33:13;;;;;;;9.13;2.97;;;;;;;11.90;83.29;101033.50;5027080;28;20030;-63
2022/11/03 04:35:39;;;;;;;8.95;2.88;;;;;;;11.91;83.02;101033.28;5027841;28;20025;-63
2022/11/03 04:38:29;;;;;;;9.45;2.65;;;;;;;11.89;83.94;101024.41;5027828;28;20951;-62
2022/11/03 04:40:56;;;;;;;9.05;2.35;;;;;;;11.89;83.68;101016.16;5026359;28;20042;-62
2022/11/03 04:43:37;;;;;;;10.75;2.92;;;;;;;11.92;83.52;101017.59;5028126;28;20087;-62
2022/11/03 04:46:04;;;;;;;8.52;2.47;;;;;;;11.89;83.78;101021.66;5028239;28;20044;-63
2022/11/03 04:48:29;;;;;;;7.35;2.60;;;;;;;11.90;84.12;101017.81;5027886;28;20053;-63
2022/11/03 04:50:57;;;;;;;12.05;3.30;;;;;;;11.86;84.38;101008.38;5027885;28;20021;-62
2022/11/03 04:53:27;;;;;;;13.82;3.08;;;;;;;11.86;84.96;101010.25;5026879;28;20375;-63
2022/11/03 04:55:53;;;;;;;10.75;2.92;;;;;;;11.88;84.75;101013.63;5029212;28;20030;-62
2022/11/03 04:58:20;;;;;;;11.10;2.55;;;;;;;11.85;85.35;101014.94;5024839;28;20074;-65
2022/11/03 05:00:50;;;;;;;12.35;2.58;;;;;;;11.86;85.18;101000.13;5029125;28;20447;-63
2022/11/03 05:03:24;;;;;;;8.80;2.75;;;;;;;11.86;85.82;101000.13;5026904;28;20046;-63
2022/11/03 05:05:50;;;;;;;13.07;2.80;;;;;;;11.94;85.57;101002.53;5027680;28;20034;-63
2022/11/03 05:08:17;;;;;;;12.48;2.72;;;;;;;11.93;85.13;100989.00;5027371;28;20413;-62
2022/11/03 05:10:43;;;;;;;9.32;2.88;;;;;;;11.97;85.59;100987.47;5028273;28;20483;-63
2022/11/03 05:13:21;;;;;;;9.00;2.40;;;;;;;11.99;85.34;100981.72;5015332;28;20049;-62
2022/11/03 05:15:49;;;;;;;8.38;2.70;;;;;;;11.93;85.89;100984.34;5027391;28;20036;-62
2022/11/03 05:18:26;;;;;;;12.82;2.92;;;;;;;11.90;86.19;100982.03;5027220;28;20128;-63
2022/11/03 05:21:00;;;;;;;10.52;3.58;;;;;;;11.89;86.32;100983.13;5026163;28;20438;-63
2022/11/03 05:23:29;;;;;;;9.70;2.63;;;;;;;11.94;86.28;100974.16;5041719;28;20526;-62
2022/11/03 05:25:57;;;;;;;9.32;2.53;;;;;;;11.93;86.38;100975.25;5028608;28;20033;-63
2022/11/03 05:28:26;;;;;;;9.80;2.65;;;;;;;11.89;86.75;100966.59;5026668;28;20037;-64
2022/11/03 05:30:52;;;;;;;11.52;2.90;;;;;;;11.89;86.72;100960.28;5027918;28;20040;-62
2022/11/03 05:33:29;;;;;;;9.07;2.47;;;;;;;11.88;87.06;100955.84;5027038;28;20042;-63
2022/11/03 05:35:59;;;;;;;9.30;3.40;;;;;;;11.85;86.98;100962.66;5025961;28;20519;-63
2022/11/03 05:38:29;;;;;;;9.70;2.90;;;;;;;11.83;87.07;100958.47;5027420;28;20108;-63
2022/11/03 05:40:54;;;;;;;9.10;2.70;;;;;;;11.83;87.51;100951.06;5026279;28;20034;-63
2022/11/03 05:43:20;;;;;;;10.70;3.17;;;;;;;11.83;87.68;100953.81;5027557;28;20404;-63
2022/11/03 05:45:48;;;;;;;11.25;2.63;;;;;;;11.83;88.31;100950.22;5028088;28;20033;-62
2022/11/03 05:48:26;;;;;;;;;;;;;;;11.88;87.09;100942.91;5028915;28;20029;-64
2022/11/03 05:50:51;;;;;;;10.88;2.92;;;;;;;11.87;88.09;100943.16;5025031;28;19924;-63
2022/11/03 05:53:22;;;;;;;9.88;2.50;;;;;;;11.87;88.46;100932.16;5027203;28;20476;-63
2022/11/03 05:55:48;;;;;;;9.32;3.00;;;;;;;11.85;88.42;100937.03;5028193;28;20035;-63
2022/11/03 05:58:36;;;;;;;9.35;2.42;;;;;;;11.90;88.75;100929.75;5027988;28;20113;-63
2022/11/03 06:01:03;;;;;;;;;;;;;;;11.98;87.49;100930.50;5028465;28;20387;-63
2022/11/03 06:03:33;;;;;;;12.90;2.78;;;;;;;11.90;88.87;100929.75;5024593;28;19917;-63
2022/11/03 06:05:59;;;;;;;13.45;2.95;;;;;;;11.97;88.79;100917.81;5025943;28;20041;-63
2022/11/03 06:08:30;;;;;;;12.35;3.10;;;;;;;11.95;88.71;100915.28;5023233;28;20060;-63
2022/11/03 06:10:57;;;;;;;11.57;3.25;;;;;;;11.93;88.83;100901.75;5025977;28;20033;-63
2022/11/03 06:13:36;;;;;;;8.48;2.67;;;;;;;11.96;88.76;100911.44;5021558;28;20087;-63
2022/11/03 06:16:23;;;;;;;8.07;2.53;;;;;;;11.96;89.03;100900.44;5026237;28;20030;-63
2022/11/03 06:18:49;;;;;;;9.13;2.50;;;;;;;12.02;88.98;100898.66;5025078;28;20041;-64
2022/11/03 06:21:24;;;;;;;13.40;2.83;;;;;;;12.03;88.72;100895.66;5026873;28;20454;-63
2022/11/03 06:23:51;;;;;;;9.60;2.85;;;;;;;12.02;89.02;100901.41;5025579;28;20108;-64
2022/11/03 06:26:25;;;;;;;11.00;3.10;;;;;;;12.04;89.06;100896.50;5028134;28;20113;-63
2022/11/03 06:28:51;;;;;;;10.88;2.60;;;;;;;12.03;88.92;100892.91;5024629;28;20037;-63
2022/11/03 06:31:20;;;;;;;10.85;3.00;;;;;;;12.00;88.80;100896.13;5027705;28;20024;-64
2022/11/03 06:33:45;;;;;;;9.70;2.78;;;;;;;11.98;89.27;100886.44;5024642;28;20071;-63
2022/11/03 06:36:23;;;;;;;11.98;3.50;;;;;;;11.99;89.14;100882.63;5026899;28;20041;-63
2022/11/03 06:38:55;;;;;;;10.27;2.90;;;;;;;11.98;89.22;100884.53;5025586;28;20120;-65
2022/11/03 06:41:26;;;;;;;12.65;2.88;;;;;;;12.02;89.15;100890.41;5026177;28;20044;-63
2022/11/03 06:43:51;;;;;;;10.00;2.60;;;;;;;11.97;89.47;100884.78;5024538;28;20488;-63
2022/11/03 06:46:21;;;;;;;12.27;2.80;;;;;;;11.95;89.65;100883.09;5025203;28;20049;-63
2022/11/03 06:48:46;;;;;;;10.07;2.70;;;;;;;12.02;88.90;100871.13;5026048;28;20033;-63
2022/11/03 06:51:26;;;;;;;10.45;3.00;;;;;;;12.04;89.11;100878.06;5024642;28;20033;-62
2022/11/03 06:53:53;;;;;;;13.45;3.25;;;;;;;11.99;89.19;100869.69;5026280;28;20018;-63
2022/11/03 06:56:21;;;;;;;12.13;2.92;;;;;;;12.03;89.19;100873.63;5026268;28;20137;-64
2022/11/03 06:58:47;;;;;;;11.43;2.65;;;;;;;11.97;89.64;100869.09;5027272;28;20590;-62
2022/11/03 07:01:24;;;;;;;11.90;2.67;;;;;;;12.01;88.89;100872.19;5023538;28;20057;-63
2022/11/03 07:03:56;;;;;;;11.20;2.38;;;;;;;12.02;89.14;100871.13;5024204;28;20041;-63
2022/11/03 07:06:25;;;;;;;9.00;2.67;;;;;;;12.06;88.61;100867.63;5026911;28;20781;-62
2022/11/03 07:09:19;;;;;;;9.18;2.78;;;;;;;12.07;88.74;100868.50;5024689;28;20091;-63
2022/11/03 07:11:54;;;;;;;10.65;2.65;;;;;;;12.06;88.94;100864.88;5026536;28;20576;-63
2022/11/03 07:14:27;;;;;;;11.35;2.60;;;;;;;12.08;88.72;100870.19;5023392;28;20040;-63
2022/11/03 07:16:54;;;;;;;9.88;2.60;;;;;;;12.09;88.97;100858.91;5023823;28;20526;-63
2022/11/03 07:19:36;;;;;;;10.95;2.72;;;;;;;12.13;88.27;100859.28;5024413;28;20403;-63
2022/11/03 07:22:13;;;;;;;9.80;2.67;;;;;;;12.14;88.65;100858.19;5023686;28;20049;-63
2022/11/03 07:24:40;;;;;;;7.82;2.50;;;;;;;12.12;88.42;100855.69;5023909;28;20044;-63
2022/11/03 07:27:26;;;;;;;10.85;3.47;;;;;;;12.17;88.31;100857.72;5023436;28;20072;-63
2022/11/03 07:29:57;;;;;;;9.00;2.75;;;;;;;12.19;88.00;100850.88;5025418;28;20022;-63
2022/11/03 07:32:27;;;;;;;11.98;2.75;;;;;;;12.16;88.28;100845.84;5025937;28;20042;-62
2022/11/03 07:35:00;;;;;;;9.70;2.78;;;;;;;12.15;88.12;100844.19;5025035;28;20686;-62
2022/11/03 07:37:25;;;;;;;11.35;2.78;;;;;;;12.15;87.89;100840.59;5026360;28;20034;-63
2022/11/03 07:39:51;;;;;;;8.98;3.10;;;;;;;12.19;87.52;100839.03;5025286;28;20025;-63
2022/11/03 07:42:21;;;;;;;11.27;2.47;;;;;;;12.15;88.03;100835.09;5023619;28;20112;-63
2022/11/03 07:44:48;;;;;;;6.35;2.40;;;;;;;12.14;87.66;100834.25;5024986;28;20037;-63
2022/11/03 07:47:19;;;;;;;11.20;3.05;;;;;;;12.15;87.89;100832.31;5027320;28;20033;-63
2022/11/03 07:49:44;;;;;;;8.25;2.22;;;;;;;12.20;87.55;100826.94;5025326;28;20029;-62
2022/11/03 07:52:15;;;;;;;11.27;2.85;;;;;;;12.19;87.58;100836.28;5024172;28;20033;-62
2022/11/03 07:54:40;;;;;;;13.88;2.75;;;;;;;12.18;88.01;100826.34;5025447;28;20029;-62
2022/11/03 07:57:21;;;;;;;12.23;3.00;;;;;;;12.25;87.22;100838.06;5025503;28;20115;-62
2022/11/03 07:59:52;;;;;;;9.20;2.97;;;;;;;12.26;87.13;100833.38;5026586;28;20552;-61
2022/11/03 08:02:33;;;;;;;13.15;2.83;;;;;;;12.29;86.33;100833.75;5025315;28;20045;-63
2022/11/03 08:04:59;;;;;;;12.70;2.85;;;;;;;12.33;85.91;100831.34;5028833;28;20021;-62
2022/11/03 08:07:26;;;;;;;9.25;2.53;;;;;;;12.36;85.90;100837.19;5021590;28;20087;-62
2022/11/03 08:09:52;;;;;;;10.77;2.53;;;;;;;12.40;85.72;100835.63;5026962;28;20025;-62
2022/11/03 08:12:17;;;;;;;10.25;2.45;;;;;;;12.44;86.04;100830.47;5028490;28;20378;-62
2022/11/03 08:14:42;;;;;;;11.68;2.92;;;;;;;12.46;85.39;100831.06;5027071;28;20060;-64
2022/11/03 08:17:08;;;;;;;8.57;2.60;;;;;;;12.51;84.85;100816.56;5027433;28;20052;-62
2022/11/03 08:19:33;;;;;;;12.73;2.95;;;;;;;12.54;84.79;100803.16;5024886;28;20033;-63
2022/11/03 08:21:58;;;;;;;16.10;3.53;;;;;;;12.57;84.20;100799.91;5024198;28;20398;-63
2022/11/03 08:24:23;;;;;;;11.80;3.13;;;;;;;12.63;83.80;100800.84;5026890;28;20030;-63
2022/11/03 08:26:49;;;;;;;12.75;3.47;;;;;;;12.65;83.96;100795.91;5029477;28;20614;-63
2022/11/03 08:29:16;;;;;;;16.40;3.38;;;;;;;12.72;83.70;100785.56;5027702;28;20033;-63
2022/11/03 08:31:42;;;;;;;16.85;3.72;;;;;;;12.75;83.68;100781.50;5015837;28;20040;-62
2022/11/03 08:34:07;;;;;;;10.60;2.42;;;;;;;12.81;82.89;100763.97;5025360;28;20550;-63
2022/11/03 08:36:32;;;;;;;10.07;2.80;;;;;;;12.84;82.09;100769.84;5026904;28;20045;-62
2022/11/03 08:38:58;;;;;;;9.65;2.58;;;;;;;12.86;82.05;100761.31;5021742;28;20056;-62
2022/11/03 08:41:23;;;;;;;9.18;2.70;;;;;;;12.88;82.10;100751.72;5028005;28;20079;-63
2022/11/03 08:43:48;;;;;;;14.02;2.80;;;;;;;12.87;82.85;100751.94;5020073;28;20025;-64
2022/11/03 08:46:14;;;;;;;12.93;2.97;;;;;;;12.89;82.31;100734.09;5032572;28;20025;-63
2022/11/03 08:48:39;;;;;;;9.52;2.45;;;;;;;12.91;82.57;100726.41;5025220;28;20033;-62
2022/11/03 08:51:04;;;;;;;10.90;2.65;;;;;;;12.94;81.71;100719.56;5027857;28;20550;-63
2022/11/03 08:53:30;;;;;;;11.23;2.70;;;;;;;12.96;81.52;100706.34;5027348;28;20072;-62
2022/11/03 08:55:55;;;;;;;10.18;3.40;;;;;;;12.97;82.77;100706.09;5028761;28;20056;-62
2022/11/03 08:58:21;;;;;;;9.13;2.67;;;;;;;13.07;81.69;100705.44;5027977;28;20564;-63
2022/11/03 09:00:47;;;;;;;7.43;2.35;;;;;;;13.07;81.73;100708.19;5028303;28;20080;-63
2022/11/03 09:03:13;;;;;;;11.10;2.50;;;;;;;13.15;81.21;100695.91;5030924;28;20127;-63
2022/11/03 09:05:38;;;;;;;7.55;2.50;;;;;;;13.19;80.79;100686.06;5020018;28;20037;-63
2022/11/03 09:08:03;;;;;;;10.95;2.85;;;;;;;13.29;80.44;100682.66;5027774;28;20508;-63
2022/11/03 09:10:29;;;;;;;10.48;2.70;;;;;;;13.41;80.46;100680.63;5028873;28;20044;-63
2022/11/03 09:12:54;;;;;;;8.52;2.67;;;;;;;13.47;79.41;100663.03;5028140;28;20026;-63
2022/11/03 09:15:20;;;;;;;11.98;2.58;;;;;;;13.53;79.17;100661.19;5023076;28;20034;-63
2022/11/03 09:17:45;;;;;;;8.73;2.83;;;;;;;13.60;79.13;100659.09;5008313;28;20557;-62
2022/11/03 09:20:11;;;;;;;8.40;2.40;;;;;;;13.67;78.08;100656.97;5012175;28;20029;-62
2022/11/03 09:22:37;;;;;;;13.02;3.30;;;;;;;13.76;78.30;100641.63;5027300;28;20033;-63
2022/11/03 09:25:03;;;;;;;8.23;2.80;;;;;;;13.83;77.37;100636.75;5028244;28;20025;-62
2022/11/03 09:27:29;;;;;;;8.95;2.65;;;;;;;13.83;77.20;100622.94;5028305;28;20040;-63
2022/11/03 09:29:54;;;;;;;10.65;2.40;;;;;;;13.85;76.96;100609.72;5027368;28;20017;-63
2022/11/03 09:32:19;;;;;;;9.00;2.40;;;;;;;13.76;77.20;100594.72;5026883;28;20025;-63
2022/11/03 09:34:45;;;;;;;8.18;2.30;;;;;;;13.74;76.97;100597.75;5025892;28;20033;-63
2022/11/03 09:37:11;;;;;;;12.27;3.35;;;;;;;13.72;76.92;100593.56;5023450;28;20173;-62
2022/11/03 09:39:36;;;;;;;9.80;2.33;;;;;;;13.63;77.52;100592.34;5027826;28;20056;-63
2022/11/03 09:42:03;;;;;;;10.52;3.13;;;;;;;13.61;77.84;100584.31;5027991;28;20043;-62
2022/11/03 09:44:32;;;;;;;7.33;2.53;;;;;;;13.63;77.99;100579.38;5025843;28;20451;-63
2022/11/03 09:46:58;;;;;;;9.02;2.80;;;;;;;13.62;77.40;100574.13;5026266;28;20341;-63
2022/11/03 09:49:25;;;;;;;9.32;2.30;;;;;;;13.57;77.66;100571.28;5027134;28;20025;-63
2022/11/03 09:51:50;;;;;;;10.68;2.63;;;;;;;13.55;77.06;100560.53;5027540;28;20036;-62
2022/11/03 09:54:16;;;;;;;8.45;2.95;;;;;;;13.57;77.76;100563.00;5025891;28;20038;-63
2022/11/03 09:56:42;;;;;;;10.10;2.45;;;;;;;13.53;78.43;100557.16;5025935;28;20034;-63
2022/11/03 09:59:19;;;;;;;11.02;2.35;;;;;;;13.53;78.02;100553.56;5027558;28;20026;-62
2022/11/03 10:01:48;;;;;;;8.83;2.60;;;;;;;13.44;78.02;100544.94;5028158;28;20029;-63
2022/11/03 10:04:15;;;;;;;8.20;2.22;;;;;;;13.43;78.85;100555.16;5027454;28;20029;-62
2022/11/03 10:06:40;;;;;;;9.98;2.33;;;;;;;13.42;77.24;100545.19;5027889;28;20037;-63
2022/11/03 10:09:13;;;;;;;8.30;2.60;;;;;;;13.45;77.83;100535.56;5025353;28;20037;-63
2022/11/03 10:11:39;;;;;;;9.18;2.53;;;;;;;13.42;77.48;100534.16;5024445;28;20036;-62
2022/11/03 10:14:05;;;;;;;10.32;2.70;;;;;;;13.45;77.57;100541.91;5027504;28;20029;-62
2022/11/03 10:16:31;;;;;;;10.27;2.60;;;;;;;13.47;77.46;100539.72;5025449;28;20030;-62
2022/11/03 10:18:56;;;;;;;6.82;2.33;;;;;;;13.44;76.91;100534.75;5026372;28;20048;-62
2022/11/03 10:21:28;;;;;;;9.50;2.72;;;;;;;13.42;77.66;100525.03;5026130;28;20387;-63
2022/11/03 10:23:53;;;;;;;10.55;2.38;;;;;;;13.46;77.19;100517.91;5026657;28;20442;-62
2022/11/03 10:26:19;;;;;;;9.02;2.42;;;;;;;13.41;77.40;100515.94;5024725;28;20044;-64
2022/11/03 10:29:20;;;;;;;10.20;2.67;;;;;;;13.44;77.59;100512.66;5027601;28;20021;-63
2022/11/03 10:31:51;;;;;;;9.43;2.30;;;;;;;13.38;77.97;100510.94;5020008;28;20128;-63
2022/11/03 10:34:34;;;;;;;8.95;2.75;;;;;;;13.39;77.85;100509.84;5026625;28;20029;-62
2022/11/03 10:37:15;;;;;;;7.80;2.13;;;;;;;13.43;77.42;100490.84;5025507;28;20072;-62
2022/11/03 10:39:41;;;;;;;10.30;2.90;;;;;;;13.48;76.87;100505.56;5026543;28;20757;-63
2022/11/03 10:42:16;;;;;;;9.43;2.47;;;;;;;13.53;76.92;100495.63;5026999;28;20120;-63
2022/11/03 10:44:41;;;;;;;8.77;2.63;;;;;;;13.58;76.62;100477.22;5027182;28;20430;-63
2022/11/03 10:47:21;;;;;;;7.68;2.60;;;;;;;13.75;76.06;100479.88;5026738;28;20029;-63
2022/11/03 10:49:47;;;;;;;9.52;2.47;;;;;;;13.82;75.71;100474.97;5025113;28;20376;-63
2022/11/03 10:52:30;;;;;;;11.70;2.47;;;;;;;14.02;75.38;100472.41;5027100;28;20024;-63
2022/11/03 10:54:58;;;;;;;9.77;2.30;;;;;;;14.17;73.88;100463.41;5026835;28;20033;-63
2022/11/03 10:57:25;;;;;;;9.05;2.17;;;;;;;14.23;73.39;100472.56;5026121;28;20116;-63
2022/11/03 10:59:53;;;;;;;8.23;2.25;;;;;;;14.20;73.93;100459.31;5027191;28;20057;-63
2022/11/03 11:02:25;;;;;;;8.35;2.72;;;;;;;14.22;74.05;100454.34;5026264;28;20434;-65
2022/11/03 11:04:58;;;;;;;8.27;2.30;;;;;;;14.21;72.63;100452.69;5024452;28;20045;-63
2022/11/03 11:07:30;;;;;;;9.25;2.47;;;;;;;14.18;73.33;100451.25;5026491;28;20021;-63
2022/11/03 11:09:55;;;;;;;6.85;1.92;;;;;;;14.16;71.90;100444.34;5026887;28;20029;-63
2022/11/03 11:12:22;;;;;;;10.25;2.47;;;;;;;14.22;72.46;100444.13;5024700;28;20065;-63
2022/11/03 11:14:58;;;;;;;7.30;2.28;;;;;;;14.42;71.88;100448.97;5027127;28;20040;-64
2022/11/03 11:17:41;;;;;;;8.45;2.20;;;;;;;14.58;72.17;100440.81;5026416;28;20064;-63
2022/11/03 11:20:22;;;;;;;6.40;2.13;;;;;;;14.60;70.96;100444.13;5019628;28;20032;-63
2022/11/03 11:22:49;;;;;;;9.30;2.55;;;;;;;14.51;70.66;100436.34;5018541;28;20041;-63
2022/11/03 11:25:16;;;;;;;9.20;2.40;;;;;;;14.46;71.17;100429.94;5027347;28;20021;-63
2022/11/03 11:27:44;;;;;;;8.63;2.20;;;;;;;14.44;70.89;100424.66;5026671;28;20467;-63
2022/11/03 11:30:18;;;;;;;7.88;2.28;;;;;;;14.46;71.56;100416.94;5026480;28;20043;-63
2022/11/03 11:32:44;;;;;;;11.95;2.85;;;;;;;14.45;69.84;100404.22;5026030;28;20139;-63
2022/11/03 11:35:14;;;;;;;9.00;2.50;;;;;;;14.46;70.63;100400.38;5024288;28;20110;-63
2022/11/03 11:37:41;;;;;;;10.88;2.38;;;;;;;14.50;69.84;100393.25;5027102;28;20059;-63
2022/11/03 11:40:24;;;;;;;8.30;2.42;;;;;;;14.48;70.02;100381.59;5029767;28;20109;-63
2022/11/03 11:43:01;;;;;;;7.30;2.15;;;;;;;14.52;69.77;100377.22;5028390;28;20045;-63
2022/11/03 11:46:04;;;;;;;10.00;2.50;;;;;;;14.64;70.14;100367.88;5030343;28;20033;-63
2022/11/03 11:48:30;;;;;;;6.95;2.10;;;;;;;14.65;68.88;100352.94;5029768;28;20084;-63
2022/11/03 11:50:57;;;;;;;8.02;1.98;;;;;;;14.69;68.78;100352.13;5029874;28;20057;-62
2022/11/03 11:53:24;;;;;;;7.68;2.25;;;;;;;14.70;68.16;100341.91;5029032;28;20036;-62